sensor_id;sensor_type;location;lat;lon;timestamp;P1;durP1;ratioP1;P2;durP2;ratioP2
20146;SDS011;10234;50.856;15.716;2022-09-09T00:00:13;4.43;;;4.13;;
20146;SDS011;10234;50.856;15.716;2022-09-09T00:02:42;5.15;;;4.07;;
20146;SDS011;10234;50.856;15.716;2022-09-09T00:05:16;4.93;;;4.40;;
20146;SDS011;10234;50.856;15.716;2022-09-09T00:07:48;4.80;;;4.38;;
20146;SDS011;10234;50.856;15.716;2022-09-09T00:10:19;4.50;;;4.20;;
20146;SDS011;10234;50.856;15.716;2022-09-09T00:12:53;5.32;;;3.97;;
20146;SDS011;10234;50.856;15.716;2022-09-09T00:15:25;4.10;;;3.80;;
20146;SDS011;10234;50.856;15.716;2022-09-09T00:17:58;4.97;;;3.80;;
20146;SDS011;10234;50.856;15.716;2022-09-09T00:20:32;6.55;;;3.58;;
20146;SDS011;10234;50.856;15.716;2022-09-09T00:23:09;4.95;;;3.67;;
20146;SDS011;10234;50.856;15.716;2022-09-09T00:25:40;7.15;;;3.88;;
20146;SDS011;10234;50.856;15.716;2022-09-09T00:28:20;4.80;;;3.88;;
20146;SDS011;10234;50.856;15.716;2022-09-09T00:30:50;4.35;;;3.35;;
20146;SDS011;10234;50.856;15.716;2022-09-09T00:33:20;7.18;;;3.75;;
20146;SDS011;10234;50.856;15.716;2022-09-09T00:35:50;5.45;;;3.28;;
20146;SDS011;10234;50.856;15.716;2022-09-09T00:38:23;3.83;;;3.53;;
20146;SDS011;10234;50.856;15.716;2022-09-09T00:40:55;4.97;;;3.67;;
20146;SDS011;10234;50.856;15.716;2022-09-09T00:43:26;3.78;;;3.42;;
20146;SDS011;10234;50.856;15.716;2022-09-09T00:45:59;5.75;;;3.78;;
20146;SDS011;10234;50.856;15.716;2022-09-09T00:48:52;4.28;;;3.72;;
20146;SDS011;10234;50.856;15.716;2022-09-09T00:51:29;4.70;;;3.33;;
20146;SDS011;10234;50.856;15.716;2022-09-09T00:54:12;6.47;;;3.45;;
20146;SDS011;10234;50.856;15.716;2022-09-09T00:56:53;5.15;;;3.72;;
20146;SDS011;10234;50.856;15.716;2022-09-09T00:59:32;4.00;;;3.55;;
20146;SDS011;10234;50.856;15.716;2022-09-09T01:02:09;4.53;;;3.70;;
20146;SDS011;10234;50.856;15.716;2022-09-09T01:04:44;5.70;;;3.42;;
20146;SDS011;10234;50.856;15.716;2022-09-09T01:07:13;6.55;;;3.83;;
20146;SDS011;10234;50.856;15.716;2022-09-09T01:09:46;4.80;;;3.50;;
20146;SDS011;10234;50.856;15.716;2022-09-09T01:12:24;4.65;;;3.53;;
20146;SDS011;10234;50.856;15.716;2022-09-09T01:14:56;3.70;;;3.40;;
20146;SDS011;10234;50.856;15.716;2022-09-09T01:17:44;4.25;;;3.45;;
20146;SDS011;10234;50.856;15.716;2022-09-09T01:20:24;4.55;;;4.07;;
20146;SDS011;10234;50.856;15.716;2022-09-09T01:23:04;4.25;;;3.78;;
20146;SDS011;10234;50.856;15.716;2022-09-09T01:26:07;4.15;;;3.75;;
20146;SDS011;10234;50.856;15.716;2022-09-09T01:28:43;6.32;;;3.45;;
20146;SDS011;10234;50.856;15.716;2022-09-09T01:31:11;3.63;;;3.28;;
20146;SDS011;10234;50.856;15.716;2022-09-09T01:33:42;4.85;;;3.60;;
20146;SDS011;10234;50.856;15.716;2022-09-09T01:36:10;3.83;;;3.25;;
20146;SDS011;10234;50.856;15.716;2022-09-09T01:38:42;3.47;;;2.92;;
20146;SDS011;10234;50.856;15.716;2022-09-09T01:41:10;11.23;;;3.60;;
20146;SDS011;10234;50.856;15.716;2022-09-09T01:43:37;3.85;;;3.38;;
20146;SDS011;10234;50.856;15.716;2022-09-09T01:46:04;5.32;;;3.50;;
20146;SDS011;10234;50.856;15.716;2022-09-09T01:48:31;5.90;;;4.25;;
20146;SDS011;10234;50.856;15.716;2022-09-09T01:50:58;5.60;;;3.10;;
20146;SDS011;10234;50.856;15.716;2022-09-09T01:53:24;4.07;;;3.05;;
20146;SDS011;10234;50.856;15.716;2022-09-09T01:55:55;4.25;;;3.25;;
20146;SDS011;10234;50.856;15.716;2022-09-09T01:58:33;6.03;;;2.97;;
20146;SDS011;10234;50.856;15.716;2022-09-09T02:01:09;6.35;;;3.00;;
20146;SDS011;10234;50.856;15.716;2022-09-09T02:03:44;3.67;;;3.35;;
20146;SDS011;10234;50.856;15.716;2022-09-09T02:06:20;4.80;;;3.05;;
20146;SDS011;10234;50.856;15.716;2022-09-09T02:08:52;3.60;;;2.90;;
20146;SDS011;10234;50.856;15.716;2022-09-09T02:11:23;2.42;;;2.30;;
20146;SDS011;10234;50.856;15.716;2022-09-09T02:13:53;2.72;;;2.63;;
20146;SDS011;10234;50.856;15.716;2022-09-09T02:16:23;3.70;;;2.83;;
20146;SDS011;10234;50.856;15.716;2022-09-09T02:18:53;4.93;;;2.72;;
20146;SDS011;10234;50.856;15.716;2022-09-09T02:21:25;4.50;;;2.55;;
20146;SDS011;10234;50.856;15.716;2022-09-09T02:23:54;5.63;;;2.85;;
20146;SDS011;10234;50.856;15.716;2022-09-09T02:26:25;3.22;;;2.63;;
20146;SDS011;10234;50.856;15.716;2022-09-09T02:28:54;2.83;;;2.63;;
20146;SDS011;10234;50.856;15.716;2022-09-09T02:31:24;5.50;;;2.50;;
20146;SDS011;10234;50.856;15.716;2022-09-09T02:33:52;2.95;;;2.40;;
20146;SDS011;10234;50.856;15.716;2022-09-09T02:36:22;3.55;;;2.38;;
20146;SDS011;10234;50.856;15.716;2022-09-09T02:38:51;3.05;;;2.47;;
20146;SDS011;10234;50.856;15.716;2022-09-09T02:41:19;3.30;;;3.00;;
20146;SDS011;10234;50.856;15.716;2022-09-09T02:43:49;4.90;;;2.70;;
20146;SDS011;10234;50.856;15.716;2022-09-09T02:46:22;4.80;;;2.97;;
20146;SDS011;10234;50.856;15.716;2022-09-09T02:48:59;5.03;;;3.55;;
20146;SDS011;10234;50.856;15.716;2022-09-09T02:51:30;6.65;;;3.58;;
20146;SDS011;10234;50.856;15.716;2022-09-09T02:54:04;3.60;;;3.30;;
20146;SDS011;10234;50.856;15.716;2022-09-09T02:56:43;6.80;;;4.30;;
20146;SDS011;10234;50.856;15.716;2022-09-09T02:59:15;5.28;;;4.22;;
20146;SDS011;10234;50.856;15.716;2022-09-09T03:01:44;8.02;;;3.95;;
20146;SDS011;10234;50.856;15.716;2022-09-09T03:04:11;4.60;;;3.45;;
20146;SDS011;10234;50.856;15.716;2022-09-09T03:06:38;4.43;;;3.50;;
20146;SDS011;10234;50.856;15.716;2022-09-09T03:09:05;3.33;;;3.05;;
20146;SDS011;10234;50.856;15.716;2022-09-09T03:11:35;3.60;;;3.38;;
20146;SDS011;10234;50.856;15.716;2022-09-09T03:14:03;3.97;;;3.58;;
20146;SDS011;10234;50.856;15.716;2022-09-09T03:16:30;3.50;;;3.20;;
20146;SDS011;10234;50.856;15.716;2022-09-09T03:18:59;7.15;;;3.58;;
20146;SDS011;10234;50.856;15.716;2022-09-09T03:21:26;3.88;;;3.47;;
20146;SDS011;10234;50.856;15.716;2022-09-09T03:23:53;4.00;;;3.60;;
20146;SDS011;10234;50.856;15.716;2022-09-09T03:26:20;3.60;;;3.30;;
20146;SDS011;10234;50.856;15.716;2022-09-09T03:28:48;3.97;;;3.35;;
20146;SDS011;10234;50.856;15.716;2022-09-09T03:31:16;4.15;;;3.75;;
20146;SDS011;10234;50.856;15.716;2022-09-09T03:33:44;5.30;;;3.45;;
20146;SDS011;10234;50.856;15.716;2022-09-09T03:36:12;3.38;;;3.10;;
20146;SDS011;10234;50.856;15.716;2022-09-09T03:38:39;5.63;;;3.67;;
20146;SDS011;10234;50.856;15.716;2022-09-09T03:41:06;5.35;;;3.78;;
20146;SDS011;10234;50.856;15.716;2022-09-09T03:43:34;4.28;;;3.88;;
20146;SDS011;10234;50.856;15.716;2022-09-09T03:46:02;4.72;;;4.22;;
20146;SDS011;10234;50.856;15.716;2022-09-09T03:48:29;5.82;;;3.33;;
20146;SDS011;10234;50.856;15.716;2022-09-09T03:50:56;5.95;;;4.50;;
20146;SDS011;10234;50.856;15.716;2022-09-09T03:53:27;5.93;;;3.28;;
20146;SDS011;10234;50.856;15.716;2022-09-09T03:55:55;3.42;;;3.13;;
20146;SDS011;10234;50.856;15.716;2022-09-09T03:58:25;3.33;;;3.13;;
20146;SDS011;10234;50.856;15.716;2022-09-09T04:00:53;5.00;;;2.95;;
20146;SDS011;10234;50.856;15.716;2022-09-09T04:03:21;3.92;;;2.67;;
20146;SDS011;10234;50.856;15.716;2022-09-09T04:05:49;3.90;;;3.03;;
20146;SDS011;10234;50.856;15.716;2022-09-09T04:08:16;4.03;;;2.97;;
20146;SDS011;10234;50.856;15.716;2022-09-09T04:10:45;4.40;;;2.92;;
20146;SDS011;10234;50.856;15.716;2022-09-09T04:13:13;5.43;;;3.50;;
20146;SDS011;10234;50.856;15.716;2022-09-09T04:15:41;3.63;;;3.33;;
20146;SDS011;10234;50.856;15.716;2022-09-09T04:18:08;4.38;;;3.30;;
20146;SDS011;10234;50.856;15.716;2022-09-09T04:20:36;5.07;;;3.10;;
20146;SDS011;10234;50.856;15.716;2022-09-09T04:23:03;4.90;;;3.42;;
20146;SDS011;10234;50.856;15.716;2022-09-09T04:25:30;4.32;;;3.10;;
20146;SDS011;10234;50.856;15.716;2022-09-09T04:28:00;6.75;;;3.50;;
20146;SDS011;10234;50.856;15.716;2022-09-09T04:30:27;6.55;;;3.10;;
20146;SDS011;10234;50.856;15.716;2022-09-09T04:32:54;4.45;;;3.38;;
20146;SDS011;10234;50.856;15.716;2022-09-09T04:35:21;4.25;;;3.13;;
20146;SDS011;10234;50.856;15.716;2022-09-09T04:37:48;4.00;;;3.25;;
20146;SDS011;10234;50.856;15.716;2022-09-09T04:40:15;4.22;;;2.75;;
20146;SDS011;10234;50.856;15.716;2022-09-09T04:42:41;3.58;;;3.28;;
20146;SDS011;10234;50.856;15.716;2022-09-09T04:45:10;3.78;;;3.40;;
20146;SDS011;10234;50.856;15.716;2022-09-09T04:47:38;3.88;;;2.95;;
20146;SDS011;10234;50.856;15.716;2022-09-09T04:50:06;6.85;;;3.40;;
20146;SDS011;10234;50.856;15.716;2022-09-09T04:52:33;4.28;;;3.53;;
20146;SDS011;10234;50.856;15.716;2022-09-09T04:55:01;3.67;;;3.38;;
20146;SDS011;10234;50.856;15.716;2022-09-09T04:57:28;4.65;;;3.60;;
20146;SDS011;10234;50.856;15.716;2022-09-09T04:59:56;3.58;;;3.15;;
20146;SDS011;10234;50.856;15.716;2022-09-09T05:02:26;3.78;;;3.42;;
20146;SDS011;10234;50.856;15.716;2022-09-09T05:04:53;5.18;;;3.35;;
20146;SDS011;10234;50.856;15.716;2022-09-09T05:07:20;4.25;;;3.65;;
20146;SDS011;10234;50.856;15.716;2022-09-09T05:09:46;4.97;;;3.10;;
20146;SDS011;10234;50.856;15.716;2022-09-09T05:12:14;3.60;;;3.30;;
20146;SDS011;10234;50.856;15.716;2022-09-09T05:14:42;4.60;;;3.55;;
20146;SDS011;10234;50.856;15.716;2022-09-09T05:17:09;3.70;;;3.30;;
20146;SDS011;10234;50.856;15.716;2022-09-09T05:19:38;7.57;;;3.50;;
20146;SDS011;10234;50.856;15.716;2022-09-09T05:22:04;2.95;;;2.55;;
20146;SDS011;10234;50.856;15.716;2022-09-09T05:24:32;3.65;;;2.38;;
20146;SDS011;10234;50.856;15.716;2022-09-09T05:26:59;3.45;;;2.70;;
20146;SDS011;10234;50.856;15.716;2022-09-09T05:29:27;3.50;;;1.90;;
20146;SDS011;10234;50.856;15.716;2022-09-09T05:31:54;2.30;;;2.10;;
20146;SDS011;10234;50.856;15.716;2022-09-09T05:34:21;5.75;;;1.80;;
20146;SDS011;10234;50.856;15.716;2022-09-09T05:36:49;3.35;;;1.63;;
20146;SDS011;10234;50.856;15.716;2022-09-09T05:39:16;3.85;;;1.27;;
20146;SDS011;10234;50.856;15.716;2022-09-09T05:41:43;1.55;;;0.95;;
20146;SDS011;10234;50.856;15.716;2022-09-09T05:44:10;1.13;;;0.90;;
20146;SDS011;10234;50.856;15.716;2022-09-09T05:46:36;3.97;;;0.95;;
20146;SDS011;10234;50.856;15.716;2022-09-09T05:49:03;1.20;;;1.10;;
20146;SDS011;10234;50.856;15.716;2022-09-09T05:51:31;2.28;;;1.02;;
20146;SDS011;10234;50.856;15.716;2022-09-09T05:53:59;3.80;;;1.20;;
20146;SDS011;10234;50.856;15.716;2022-09-09T05:56:26;1.65;;;1.23;;
20146;SDS011;10234;50.856;15.716;2022-09-09T05:58:54;1.08;;;1.00;;
20146;SDS011;10234;50.856;15.716;2022-09-09T06:01:23;2.75;;;1.20;;
20146;SDS011;10234;50.856;15.716;2022-09-09T06:03:52;1.83;;;1.20;;
20146;SDS011;10234;50.856;15.716;2022-09-09T06:06:20;1.65;;;1.50;;
20146;SDS011;10234;50.856;15.716;2022-09-09T06:08:48;1.83;;;1.35;;
20146;SDS011;10234;50.856;15.716;2022-09-09T06:11:20;2.85;;;1.10;;
20146;SDS011;10234;50.856;15.716;2022-09-09T06:13:48;3.03;;;1.15;;
20146;SDS011;10234;50.856;15.716;2022-09-09T06:16:17;5.75;;;1.40;;
20146;SDS011;10234;50.856;15.716;2022-09-09T06:18:45;4.75;;;1.17;;
20146;SDS011;10234;50.856;15.716;2022-09-09T06:21:14;10.30;;;1.40;;
20146;SDS011;10234;50.856;15.716;2022-09-09T06:23:42;3.22;;;1.20;;
20146;SDS011;10234;50.856;15.716;2022-09-09T06:26:11;1.30;;;1.20;;
20146;SDS011;10234;50.856;15.716;2022-09-09T06:28:40;2.05;;;1.23;;
20146;SDS011;10234;50.856;15.716;2022-09-09T06:31:08;2.13;;;1.08;;
20146;SDS011;10234;50.856;15.716;2022-09-09T06:33:37;2.88;;;1.23;;
20146;SDS011;10234;50.856;15.716;2022-09-09T06:36:06;1.30;;;1.20;;
20146;SDS011;10234;50.856;15.716;2022-09-09T06:38:36;2.63;;;0.85;;
20146;SDS011;10234;50.856;15.716;2022-09-09T06:41:03;1.45;;;0.90;;
20146;SDS011;10234;50.856;15.716;2022-09-09T06:43:31;2.03;;;0.93;;
20146;SDS011;10234;50.856;15.716;2022-09-09T06:46:00;4.05;;;1.00;;
20146;SDS011;10234;50.856;15.716;2022-09-09T06:48:28;1.50;;;1.00;;
20146;SDS011;10234;50.856;15.716;2022-09-09T06:51:02;3.30;;;1.00;;
20146;SDS011;10234;50.856;15.716;2022-09-09T06:53:31;1.65;;;1.17;;
20146;SDS011;10234;50.856;15.716;2022-09-09T06:55:59;1.95;;;0.80;;
20146;SDS011;10234;50.856;15.716;2022-09-09T06:58:27;3.85;;;1.10;;
20146;SDS011;10234;50.856;15.716;2022-09-09T07:01:02;3.85;;;1.00;;
20146;SDS011;10234;50.856;15.716;2022-09-09T07:03:29;1.65;;;0.82;;
20146;SDS011;10234;50.856;15.716;2022-09-09T07:05:56;3.03;;;0.70;;
20146;SDS011;10234;50.856;15.716;2022-09-09T07:08:24;2.78;;;1.17;;
20146;SDS011;10234;50.856;15.716;2022-09-09T07:10:51;2.67;;;0.90;;
20146;SDS011;10234;50.856;15.716;2022-09-09T07:13:19;0.75;;;0.68;;
20146;SDS011;10234;50.856;15.716;2022-09-09T07:15:49;2.47;;;0.70;;
20146;SDS011;10234;50.856;15.716;2022-09-09T07:18:17;0.90;;;0.80;;
20146;SDS011;10234;50.856;15.716;2022-09-09T07:20:52;0.98;;;0.90;;
20146;SDS011;10234;50.856;15.716;2022-09-09T07:23:20;1.00;;;1.00;;
20146;SDS011;10234;50.856;15.716;2022-09-09T07:25:47;2.25;;;0.88;;
20146;SDS011;10234;50.856;15.716;2022-09-09T07:28:14;1.58;;;1.10;;
20146;SDS011;10234;50.856;15.716;2022-09-09T07:30:41;2.80;;;1.30;;
20146;SDS011;10234;50.856;15.716;2022-09-09T07:33:07;2.63;;;1.17;;
20146;SDS011;10234;50.856;15.716;2022-09-09T07:35:36;1.75;;;1.13;;
20146;SDS011;10234;50.856;15.716;2022-09-09T07:38:04;1.40;;;1.20;;
20146;SDS011;10234;50.856;15.716;2022-09-09T07:40:31;3.55;;;1.10;;
20146;SDS011;10234;50.856;15.716;2022-09-09T07:42:58;1.67;;;0.90;;
20146;SDS011;10234;50.856;15.716;2022-09-09T07:45:25;4.88;;;1.50;;
20146;SDS011;10234;50.856;15.716;2022-09-09T07:47:53;5.45;;;1.13;;
20146;SDS011;10234;50.856;15.716;2022-09-09T07:50:21;3.13;;;1.08;;
20146;SDS011;10234;50.856;15.716;2022-09-09T07:52:50;2.00;;;1.00;;
20146;SDS011;10234;50.856;15.716;2022-09-09T07:55:17;1.77;;;0.80;;
20146;SDS011;10234;50.856;15.716;2022-09-09T07:57:44;3.47;;;0.98;;
20146;SDS011;10234;50.856;15.716;2022-09-09T08:00:11;2.70;;;0.98;;
20146;SDS011;10234;50.856;15.716;2022-09-09T08:02:40;2.50;;;0.95;;
20146;SDS011;10234;50.856;15.716;2022-09-09T08:05:07;3.15;;;0.98;;
20146;SDS011;10234;50.856;15.716;2022-09-09T08:07:34;1.98;;;1.33;;
20146;SDS011;10234;50.856;15.716;2022-09-09T08:10:02;2.88;;;0.85;;
20146;SDS011;10234;50.856;15.716;2022-09-09T08:12:29;1.77;;;0.90;;
20146;SDS011;10234;50.856;15.716;2022-09-09T08:14:57;1.42;;;0.98;;
20146;SDS011;10234;50.856;15.716;2022-09-09T08:17:24;4.32;;;0.82;;
20146;SDS011;10234;50.856;15.716;2022-09-09T08:19:51;1.00;;;0.60;;
20146;SDS011;10234;50.856;15.716;2022-09-09T08:22:19;2.95;;;0.95;;
20146;SDS011;10234;50.856;15.716;2022-09-09T08:24:47;1.23;;;0.85;;
20146;SDS011;10234;50.856;15.716;2022-09-09T08:27:15;2.55;;;0.70;;
20146;SDS011;10234;50.856;15.716;2022-09-09T08:29:41;1.38;;;0.80;;
20146;SDS011;10234;50.856;15.716;2022-09-09T08:32:08;2.13;;;0.90;;
20146;SDS011;10234;50.856;15.716;2022-09-09T08:34:35;0.70;;;0.60;;
20146;SDS011;10234;50.856;15.716;2022-09-09T08:37:02;3.55;;;0.80;;
20146;SDS011;10234;50.856;15.716;2022-09-09T08:39:28;2.10;;;0.50;;
20146;SDS011;10234;50.856;15.716;2022-09-09T08:42:00;2.38;;;0.75;;
20146;SDS011;10234;50.856;15.716;2022-09-09T08:44:52;1.65;;;0.50;;
20146;SDS011;10234;50.856;15.716;2022-09-09T08:47:51;1.15;;;0.50;;
20146;SDS011;10234;50.856;15.716;2022-09-09T08:50:30;0.73;;;0.50;;
20146;SDS011;10234;50.856;15.716;2022-09-09T08:53:01;1.13;;;0.43;;
20146;SDS011;10234;50.856;15.716;2022-09-09T08:55:35;0.93;;;0.50;;
20146;SDS011;10234;50.856;15.716;2022-09-09T08:58:09;0.52;;;0.30;;
20146;SDS011;10234;50.856;15.716;2022-09-09T09:00:42;1.02;;;0.40;;
20146;SDS011;10234;50.856;15.716;2022-09-09T09:03:27;0.52;;;0.28;;
20146;SDS011;10234;50.856;15.716;2022-09-09T09:06:01;0.40;;;0.30;;
20146;SDS011;10234;50.856;15.716;2022-09-09T09:08:36;1.33;;;0.35;;
20146;SDS011;10234;50.856;15.716;2022-09-09T09:11:10;1.35;;;0.60;;
20146;SDS011;10234;50.856;15.716;2022-09-09T09:13:38;0.93;;;0.45;;
20146;SDS011;10234;50.856;15.716;2022-09-09T09:16:15;3.10;;;0.50;;
20146;SDS011;10234;50.856;15.716;2022-09-09T09:18:48;1.50;;;0.30;;
20146;SDS011;10234;50.856;15.716;2022-09-09T09:21:16;1.08;;;0.50;;
20146;SDS011;10234;50.856;15.716;2022-09-09T09:23:51;0.65;;;0.45;;
20146;SDS011;10234;50.856;15.716;2022-09-09T09:26:22;5.40;;;5.00;;
20146;SDS011;10234;50.856;15.716;2022-09-09T09:28:53;1.98;;;0.55;;
20146;SDS011;10234;50.856;15.716;2022-09-09T09:31:23;3.67;;;0.40;;
20146;SDS011;10234;50.856;15.716;2022-09-09T09:33:52;3.30;;;0.50;;
20146;SDS011;10234;50.856;15.716;2022-09-09T09:36:20;1.38;;;0.30;;
20146;SDS011;10234;50.856;15.716;2022-09-09T09:38:52;1.55;;;0.20;;
20146;SDS011;10234;50.856;15.716;2022-09-09T09:41:28;0.50;;;0.30;;
20146;SDS011;10234;50.856;15.716;2022-09-09T09:43:56;2.47;;;0.50;;
20146;SDS011;10234;50.856;15.716;2022-09-09T09:46:24;1.25;;;0.45;;
20146;SDS011;10234;50.856;15.716;2022-09-09T09:48:57;2.08;;;0.60;;
20146;SDS011;10234;50.856;15.716;2022-09-09T09:51:25;4.70;;;0.28;;
20146;SDS011;10234;50.856;15.716;2022-09-09T09:53:53;1.70;;;0.30;;
20146;SDS011;10234;50.856;15.716;2022-09-09T09:56:28;2.03;;;0.30;;
20146;SDS011;10234;50.856;15.716;2022-09-09T09:58:55;0.52;;;0.22;;
20146;SDS011;10234;50.856;15.716;2022-09-09T10:01:26;1.73;;;0.50;;
20146;SDS011;10234;50.856;15.716;2022-09-09T10:03:56;2.00;;;0.40;;
20146;SDS011;10234;50.856;15.716;2022-09-09T10:06:31;0.38;;;0.30;;
20146;SDS011;10234;50.856;15.716;2022-09-09T10:08:59;0.90;;;0.32;;
20146;SDS011;10234;50.856;15.716;2022-09-09T10:11:41;0.40;;;0.30;;
20146;SDS011;10234;50.856;15.716;2022-09-09T10:14:18;0.70;;;0.30;;
20146;SDS011;10234;50.856;15.716;2022-09-09T10:16:52;1.17;;;0.40;;
20146;SDS011;10234;50.856;15.716;2022-09-09T10:19:30;0.38;;;0.25;;
20146;SDS011;10234;50.856;15.716;2022-09-09T10:25:11;1.30;;;0.32;;
20146;SDS011;10234;50.856;15.716;2022-09-09T10:27:51;0.52;;;0.28;;
20146;SDS011;10234;50.856;15.716;2022-09-09T10:30:37;0.43;;;0.30;;
20146;SDS011;10234;50.856;15.716;2022-09-09T10:33:15;0.93;;;0.30;;
20146;SDS011;10234;50.856;15.716;2022-09-09T10:35:51;0.65;;;0.43;;
20146;SDS011;10234;50.856;15.716;2022-09-09T10:38:24;1.05;;;0.63;;
20146;SDS011;10234;50.856;15.716;2022-09-09T10:41:06;1.02;;;0.40;;
20146;SDS011;10234;50.856;15.716;2022-09-09T10:43:42;0.57;;;0.35;;
20146;SDS011;10234;50.856;15.716;2022-09-09T10:46:23;1.95;;;0.40;;
20146;SDS011;10234;50.856;15.716;2022-09-09T10:49:03;0.45;;;0.30;;
20146;SDS011;10234;50.856;15.716;2022-09-09T10:51:43;3.50;;;0.38;;
20146;SDS011;10234;50.856;15.716;2022-09-09T10:54:25;1.33;;;0.38;;
20146;SDS011;10234;50.856;15.716;2022-09-09T10:57:03;1.33;;;0.40;;
20146;SDS011;10234;50.856;15.716;2022-09-09T10:59:36;0.50;;;0.30;;
20146;SDS011;10234;50.856;15.716;2022-09-09T11:02:11;0.50;;;0.22;;
20146;SDS011;10234;50.856;15.716;2022-09-09T11:04:47;0.95;;;0.38;;
20146;SDS011;10234;50.856;15.716;2022-09-09T11:07:21;1.40;;;0.30;;
20146;SDS011;10234;50.856;15.716;2022-09-09T11:09:53;1.02;;;0.30;;
20146;SDS011;10234;50.856;15.716;2022-09-09T11:12:27;0.68;;;0.20;;
20146;SDS011;10234;50.856;15.716;2022-09-09T11:14:57;0.95;;;0.32;;
20146;SDS011;10234;50.856;15.716;2022-09-09T11:17:31;0.30;;;0.25;;
20146;SDS011;10234;50.856;15.716;2022-09-09T11:20:06;0.65;;;0.30;;
20146;SDS011;10234;50.856;15.716;2022-09-09T11:22:39;1.15;;;0.50;;
20146;SDS011;10234;50.856;15.716;2022-09-09T11:25:14;0.73;;;0.35;;
20146;SDS011;10234;50.856;15.716;2022-09-09T11:27:44;0.68;;;0.30;;
20146;SDS011;10234;50.856;15.716;2022-09-09T11:30:24;1.35;;;0.30;;
20146;SDS011;10234;50.856;15.716;2022-09-09T11:36:06;1.63;;;0.50;;
20146;SDS011;10234;50.856;15.716;2022-09-09T11:38:56;2.22;;;0.43;;
20146;SDS011;10234;50.856;15.716;2022-09-09T11:41:32;1.05;;;0.32;;
20146;SDS011;10234;50.856;15.716;2022-09-09T11:44:08;2.45;;;0.35;;
20146;SDS011;10234;50.856;15.716;2022-09-09T11:46:37;1.05;;;0.40;;
20146;SDS011;10234;50.856;15.716;2022-09-09T11:49:06;1.05;;;0.40;;
20146;SDS011;10234;50.856;15.716;2022-09-09T11:51:54;0.47;;;0.32;;
20146;SDS011;10234;50.856;15.716;2022-09-09T11:54:28;0.40;;;0.40;;
20146;SDS011;10234;50.856;15.716;2022-09-09T11:56:57;1.00;;;0.35;;
20146;SDS011;10234;50.856;15.716;2022-09-09T11:59:25;0.77;;;0.40;;
20146;SDS011;10234;50.856;15.716;2022-09-09T12:01:55;1.23;;;0.40;;
20146;SDS011;10234;50.856;15.716;2022-09-09T12:04:30;0.73;;;0.55;;
20146;SDS011;10234;50.856;15.716;2022-09-09T12:07:03;0.73;;;0.47;;
20146;SDS011;10234;50.856;15.716;2022-09-09T12:09:47;1.92;;;0.40;;
20146;SDS011;10234;50.856;15.716;2022-09-09T12:12:25;0.55;;;0.30;;
20146;SDS011;10234;50.856;15.716;2022-09-09T12:17:51;1.33;;;0.50;;
20146;SDS011;10234;50.856;15.716;2022-09-09T12:20:20;1.10;;;0.50;;
20146;SDS011;10234;50.856;15.716;2022-09-09T12:22:54;1.90;;;0.60;;
20146;SDS011;10234;50.856;15.716;2022-09-09T12:25:42;1.08;;;0.40;;
20146;SDS011;10234;50.856;15.716;2022-09-09T12:28:27;1.45;;;0.40;;
20146;SDS011;10234;50.856;15.716;2022-09-09T12:31:09;2.03;;;0.30;;
20146;SDS011;10234;50.856;15.716;2022-09-09T12:33:43;0.65;;;0.38;;
20146;SDS011;10234;50.856;15.716;2022-09-09T12:36:13;0.65;;;0.50;;
20146;SDS011;10234;50.856;15.716;2022-09-09T12:38:44;0.75;;;0.50;;
20146;SDS011;10234;50.856;15.716;2022-09-09T12:41:18;2.78;;;0.40;;
20146;SDS011;10234;50.856;15.716;2022-09-09T12:43:46;0.40;;;0.40;;
20146;SDS011;10234;50.856;15.716;2022-09-09T12:46:16;0.65;;;0.60;;
20146;SDS011;10234;50.856;15.716;2022-09-09T12:48:51;0.95;;;0.57;;
20146;SDS011;10234;50.856;15.716;2022-09-09T12:51:21;0.85;;;0.57;;
20146;SDS011;10234;50.856;15.716;2022-09-09T12:53:53;2.75;;;0.65;;
20146;SDS011;10234;50.856;15.716;2022-09-09T12:56:21;1.83;;;0.50;;
20146;SDS011;10234;50.856;15.716;2022-09-09T12:58:51;1.58;;;0.52;;
20146;SDS011;10234;50.856;15.716;2022-09-09T13:01:21;1.35;;;0.50;;
20146;SDS011;10234;50.856;15.716;2022-09-09T13:03:49;1.40;;;0.60;;
20146;SDS011;10234;50.856;15.716;2022-09-09T13:06:19;1.35;;;0.60;;
20146;SDS011;10234;50.856;15.716;2022-09-09T13:08:47;1.65;;;0.60;;
20146;SDS011;10234;50.856;15.716;2022-09-09T13:11:16;0.98;;;0.40;;
20146;SDS011;10234;50.856;15.716;2022-09-09T13:13:50;1.35;;;0.52;;
20146;SDS011;10234;50.856;15.716;2022-09-09T13:16:19;2.63;;;0.68;;
20146;SDS011;10234;50.856;15.716;2022-09-09T13:18:49;2.55;;;0.70;;
20146;SDS011;10234;50.856;15.716;2022-09-09T13:21:16;1.05;;;0.63;;
20146;SDS011;10234;50.856;15.716;2022-09-09T13:23:48;3.22;;;0.50;;
20146;SDS011;10234;50.856;15.716;2022-09-09T13:26:22;2.28;;;0.70;;
20146;SDS011;10234;50.856;15.716;2022-09-09T13:28:51;0.80;;;0.63;;
20146;SDS011;10234;50.856;15.716;2022-09-09T13:31:20;2.35;;;0.60;;
20146;SDS011;10234;50.856;15.716;2022-09-09T13:33:49;0.70;;;0.63;;
20146;SDS011;10234;50.856;15.716;2022-09-09T13:36:26;1.17;;;0.50;;
20146;SDS011;10234;50.856;15.716;2022-09-09T13:38:55;2.25;;;0.98;;
20146;SDS011;10234;50.856;15.716;2022-09-09T13:41:27;2.75;;;0.68;;
20146;SDS011;10234;50.856;15.716;2022-09-09T13:43:57;1.27;;;0.80;;
20146;SDS011;10234;50.856;15.716;2022-09-09T13:46:25;1.50;;;0.75;;
20146;SDS011;10234;50.856;15.716;2022-09-09T13:48:56;1.42;;;0.60;;
20146;SDS011;10234;50.856;15.716;2022-09-09T13:51:28;1.20;;;0.70;;
20146;SDS011;10234;50.856;15.716;2022-09-09T13:53:59;1.35;;;0.80;;
20146;SDS011;10234;50.856;15.716;2022-09-09T13:56:27;0.95;;;0.88;;
20146;SDS011;10234;50.856;15.716;2022-09-09T13:58:54;1.42;;;0.80;;
20146;SDS011;10234;50.856;15.716;2022-09-09T14:01:22;2.30;;;0.90;;
20146;SDS011;10234;50.856;15.716;2022-09-09T14:03:49;2.15;;;0.80;;
20146;SDS011;10234;50.856;15.716;2022-09-09T14:06:18;1.88;;;0.90;;
20146;SDS011;10234;50.856;15.716;2022-09-09T14:08:47;2.88;;;1.05;;
20146;SDS011;10234;50.856;15.716;2022-09-09T14:11:14;2.22;;;0.90;;
20146;SDS011;10234;50.856;15.716;2022-09-09T14:13:42;1.48;;;0.90;;
20146;SDS011;10234;50.856;15.716;2022-09-09T14:16:09;2.30;;;0.90;;
20146;SDS011;10234;50.856;15.716;2022-09-09T14:18:36;0.90;;;0.90;;
20146;SDS011;10234;50.856;15.716;2022-09-09T14:21:04;1.35;;;1.10;;
20146;SDS011;10234;50.856;15.716;2022-09-09T14:23:30;1.00;;;0.80;;
20146;SDS011;10234;50.856;15.716;2022-09-09T14:25:57;2.00;;;0.80;;
20146;SDS011;10234;50.856;15.716;2022-09-09T14:28:24;0.90;;;0.90;;
20146;SDS011;10234;50.856;15.716;2022-09-09T14:30:52;1.35;;;0.80;;
20146;SDS011;10234;50.856;15.716;2022-09-09T14:33:19;2.58;;;0.80;;
20146;SDS011;10234;50.856;15.716;2022-09-09T14:35:46;1.13;;;1.00;;
20146;SDS011;10234;50.856;15.716;2022-09-09T14:38:13;2.83;;;0.90;;
20146;SDS011;10234;50.856;15.716;2022-09-09T14:40:40;4.05;;;0.85;;
20146;SDS011;10234;50.856;15.716;2022-09-09T14:43:10;2.85;;;1.38;;
20146;SDS011;10234;50.856;15.716;2022-09-09T14:45:39;2.10;;;0.80;;
20146;SDS011;10234;50.856;15.716;2022-09-09T14:48:07;2.40;;;0.68;;
20146;SDS011;10234;50.856;15.716;2022-09-09T14:50:34;2.28;;;0.80;;
20146;SDS011;10234;50.856;15.716;2022-09-09T14:53:04;2.47;;;0.63;;
20146;SDS011;10234;50.856;15.716;2022-09-09T14:55:32;2.42;;;0.77;;
20146;SDS011;10234;50.856;15.716;2022-09-09T14:57:59;2.42;;;0.70;;
20146;SDS011;10234;50.856;15.716;2022-09-09T15:00:26;1.88;;;0.90;;
20146;SDS011;10234;50.856;15.716;2022-09-09T15:02:53;1.88;;;1.05;;